RYR81XN EYKA-LEMG
Flight info
| Callsign | RYR81XN |
|---|---|
| Flight time | 3h 57m |
| Altitude | 36000 |
| Route | KAZLA DCT TUNGA DCT SUWGI DCT POLON DCT DESEN DCT LANUX DCT DETSA/N0444F370 DCT GEKBA DCT VAMTU DCT KOLON DCT GANGU DCT PADKO DCT DIVKO DCT NILDU DCT NENDA DCT BCN DCT RODRA DCT PEXOT DCT EBROX DCT LOTOS DCT TORDU DCT DIKUT DCT SOPET DCT VLC DCT SERRA DCT ASTRO DCT POBOS DCT XEBAR DCT YES DCT MAMIS DCT BAZAS DCT VIBAS |
| Aircraft | B38M/M-SDE1FGHILORVWXY/HB1 |
Departure
| Time | 2026-04-26 10:54 |
|---|---|
| Airport | Kaunas International Airport (EYKA) |
Arrival
| Time | 2026-04-26 14:51 |
|---|---|
| Airport | Málaga-Costa del Sol Airport (LEMG) |
| Time | Latitude | Longitude | Altitude | Speed | Heading |
|---|---|---|---|---|---|
| 2026-04-26 10:17 | 54.96638 | 24.07710 | 270 ft | 0 kts | 86° |
| 2026-04-26 10:41 | 54.96637 | 24.07702 | 270 ft | 3 kts | 87° |
| 2026-04-26 10:41 | 54.96638 | 24.07665 | 270 ft | 3 kts | 107° |
| 2026-04-26 10:42 | 54.96648 | 24.07637 | 270 ft | 3 kts | 152° |
| 2026-04-26 10:42 | 54.96657 | 24.07632 | 270 ft | 0 kts | 175° |
| 2026-04-26 10:45 | 54.96652 | 24.07633 | 270 ft | 2 kts | 175° |
| 2026-04-26 10:46 | 54.96625 | 24.07637 | 270 ft | 6 kts | 175° |
| 2026-04-26 10:46 | 54.96577 | 24.07644 | 270 ft | 8 kts | 175° |
| 2026-04-26 10:46 | 54.96524 | 24.07659 | 270 ft | 6 kts | 149° |
| 2026-04-26 10:46 | 54.96513 | 24.07735 | 270 ft | 8 kts | 84° |
| 2026-04-26 10:47 | 54.96518 | 24.07843 | 270 ft | 11 kts | 85° |
| 2026-04-26 10:47 | 54.96526 | 24.07985 | 270 ft | 13 kts | 81° |
| 2026-04-26 10:47 | 54.96551 | 24.08138 | 270 ft | 14 kts | 72° |
| 2026-04-26 10:47 | 54.96569 | 24.08309 | 270 ft | 15 kts | 85° |
| 2026-04-26 10:48 | 54.96579 | 24.08504 | 270 ft | 17 kts | 85° |
| 2026-04-26 10:48 | 54.96590 | 24.08712 | 270 ft | 18 kts | 85° |
| 2026-04-26 10:48 | 54.96599 | 24.08931 | 270 ft | 19 kts | 85° |
| 2026-04-26 10:48 | 54.96609 | 24.09157 | 270 ft | 19 kts | 85° |
| 2026-04-26 10:49 | 54.96620 | 24.09395 | 270 ft | 20 kts | 85° |
| 2026-04-26 10:49 | 54.96624 | 24.09596 | 270 ft | 11 kts | 110° |
| 2026-04-26 10:49 | 54.96564 | 24.09655 | 270 ft | 11 kts | 176° |
| 2026-04-26 10:49 | 54.96482 | 24.09668 | 270 ft | 12 kts | 166° |
| 2026-04-26 10:50 | 54.96450 | 24.09789 | 270 ft | 12 kts | 84° |
| 2026-04-26 10:50 | 54.96455 | 24.09886 | 271 ft | 12 kts | 85° |
| 2026-04-26 10:50 | 54.96465 | 24.10091 | 272 ft | 13 kts | 85° |
| 2026-04-26 10:50 | 54.96474 | 24.10255 | 272 ft | 15 kts | 85° |
| 2026-04-26 10:51 | 54.96483 | 24.10445 | 271 ft | 17 kts | 85° |
| 2026-04-26 10:51 | 54.96542 | 24.10835 | 270 ft | 16 kts | 54° |
| 2026-04-26 10:51 | 54.96561 | 24.10979 | 270 ft | 8 kts | 110° |
| 2026-04-26 10:52 | 54.96516 | 24.10995 | 270 ft | 6 kts | 209° |
| 2026-04-26 10:52 | 54.96508 | 24.10966 | 270 ft | 0 kts | 264° |
| 2026-04-26 10:54 | 54.96481 | 24.10357 | 271 ft | 86 kts | 265° |
| 2026-04-26 10:54 | 54.96405 | 24.08917 | 277 ft | 148 kts | 269° |
| 2026-04-26 10:54 | 54.96321 | 24.07007 | 757 ft | 168 kts | 269° |
| 2026-04-26 10:54 | 54.96264 | 24.04999 | 1975 ft | 163 kts | 264° |
| 2026-04-26 10:55 | 54.96167 | 24.02922 | 2450 ft | 183 kts | 264° |
| 2026-04-26 10:55 | 54.95814 | 24.00623 | 2708 ft | 215 kts | 244° |
| 2026-04-26 10:55 | 54.94835 | 23.98619 | 3499 ft | 224 kts | 224° |
| 2026-04-26 10:55 | 54.93606 | 23.96802 | 4099 ft | 240 kts | 224° |
| 2026-04-26 10:56 | 54.92322 | 23.94865 | 4909 ft | 245 kts | 225° |
| 2026-04-26 10:56 | 54.91027 | 23.92894 | 5766 ft | 250 kts | 225° |
| 2026-04-26 10:56 | 54.89710 | 23.90895 | 6609 ft | 253 kts | 225° |
| 2026-04-26 10:56 | 54.88379 | 23.88868 | 7394 ft | 256 kts | 226° |
| 2026-04-26 10:57 | 54.87030 | 23.86810 | 8181 ft | 260 kts | 226° |
| 2026-04-26 10:57 | 54.85677 | 23.84745 | 8965 ft | 264 kts | 226° |
| 2026-04-26 10:57 | 54.84269 | 23.82598 | 9755 ft | 268 kts | 227° |
| 2026-04-26 10:57 | 54.82867 | 23.80460 | 10322 ft | 278 kts | 227° |
| 2026-04-26 10:58 | 54.81369 | 23.78172 | 10675 ft | 295 kts | 227° |
| 2026-04-26 10:58 | 54.79789 | 23.75760 | 11115 ft | 308 kts | 227° |
| 2026-04-26 10:58 | 54.78157 | 23.73275 | 11691 ft | 315 kts | 227° |
| 2026-04-26 10:58 | 54.76503 | 23.70764 | 12419 ft | 318 kts | 227° |
| 2026-04-26 10:59 | 54.74829 | 23.68228 | 13131 ft | 321 kts | 227° |
| 2026-04-26 10:59 | 54.73139 | 23.65670 | 13844 ft | 324 kts | 227° |
| 2026-04-26 10:59 | 54.71432 | 23.63090 | 14472 ft | 327 kts | 227° |
| 2026-04-26 10:59 | 54.69706 | 23.60485 | 15106 ft | 330 kts | 227° |
| 2026-04-26 11:00 | 54.67964 | 23.57858 | 15745 ft | 334 kts | 228° |
| 2026-04-26 11:00 | 54.66206 | 23.55213 | 16366 ft | 337 kts | 228° |
| 2026-04-26 11:00 | 54.64426 | 23.52528 | 16937 ft | 340 kts | 229° |
| 2026-04-26 11:00 | 54.62642 | 23.49825 | 17583 ft | 343 kts | 228° |
| 2026-04-26 11:01 | 54.60825 | 23.47119 | 18153 ft | 347 kts | 228° |
| 2026-04-26 11:01 | 54.58990 | 23.44379 | 18666 ft | 350 kts | 229° |
| 2026-04-26 11:01 | 54.57168 | 23.41656 | 19188 ft | 352 kts | 229° |
| 2026-04-26 11:01 | 54.55307 | 23.38876 | 19690 ft | 355 kts | 229° |
| 2026-04-26 11:02 | 54.53432 | 23.36078 | 20201 ft | 357 kts | 229° |
| 2026-04-26 11:02 | 54.51548 | 23.33271 | 20694 ft | 360 kts | 229° |
| 2026-04-26 11:02 | 54.49580 | 23.30564 | 21164 ft | 370 kts | 219° |
| 2026-04-26 11:02 | 54.47312 | 23.28391 | 21694 ft | 374 kts | 218° |
| 2026-04-26 11:03 | 54.45028 | 23.26184 | 22128 ft | 377 kts | 218° |
| 2026-04-26 11:03 | 54.42731 | 23.23975 | 22609 ft | 380 kts | 218° |
| 2026-04-26 11:03 | 54.40410 | 23.21748 | 23061 ft | 383 kts | 218° |
| 2026-04-26 11:03 | 54.38071 | 23.19510 | 23511 ft | 386 kts | 218° |
| 2026-04-26 11:04 | 54.35716 | 23.17259 | 23900 ft | 389 kts | 218° |
| 2026-04-26 11:04 | 54.33341 | 23.14992 | 24294 ft | 392 kts | 218° |
| 2026-04-26 11:04 | 54.30949 | 23.12712 | 24675 ft | 395 kts | 218° |
| 2026-04-26 11:04 | 54.28543 | 23.10423 | 25053 ft | 397 kts | 218° |
| 2026-04-26 11:05 | 54.26118 | 23.08117 | 25454 ft | 400 kts | 218° |
| 2026-04-26 11:05 | 54.23711 | 23.05832 | 25823 ft | 402 kts | 218° |
| 2026-04-26 11:05 | 54.21253 | 23.03502 | 26183 ft | 406 kts | 218° |
| 2026-04-26 11:05 | 54.18773 | 23.01154 | 26537 ft | 408 kts | 218° |
| 2026-04-26 11:06 | 54.16283 | 22.98800 | 26909 ft | 411 kts | 218° |
| 2026-04-26 11:06 | 54.14588 | 22.97200 | 27147 ft | 413 kts | 218° |
| 2026-04-26 11:06 | 54.11245 | 22.94046 | 27591 ft | 417 kts | 218° |
| 2026-04-26 11:06 | 54.08692 | 22.91642 | 27909 ft | 420 kts | 218° |
| 2026-04-26 11:07 | 54.06281 | 22.88925 | 28222 ft | 408 kts | 231° |
| 2026-04-26 11:07 | 54.04181 | 22.85672 | 28480 ft | 411 kts | 230° |
| 2026-04-26 11:07 | 54.02034 | 22.82423 | 28795 ft | 414 kts | 231° |
| 2026-04-26 11:07 | 53.99883 | 22.79148 | 29094 ft | 417 kts | 231° |
| 2026-04-26 11:08 | 53.97723 | 22.75852 | 29425 ft | 419 kts | 231° |
| 2026-04-26 11:08 | 53.95548 | 22.72535 | 29731 ft | 421 kts | 231° |
| 2026-04-26 11:08 | 53.93356 | 22.69193 | 30017 ft | 424 kts | 231° |
| 2026-04-26 11:08 | 53.91150 | 22.65838 | 30258 ft | 427 kts | 231° |
| 2026-04-26 11:09 | 53.88965 | 22.62518 | 30546 ft | 428 kts | 231° |
| 2026-04-26 11:09 | 53.86741 | 22.59143 | 30820 ft | 429 kts | 230° |
| 2026-04-26 11:09 | 53.84515 | 22.55770 | 31097 ft | 431 kts | 230° |
| 2026-04-26 11:09 | 53.82271 | 22.52376 | 31344 ft | 433 kts | 230° |
| 2026-04-26 11:10 | 53.80023 | 22.48979 | 31621 ft | 434 kts | 230° |
| 2026-04-26 11:10 | 53.77766 | 22.45575 | 31883 ft | 435 kts | 230° |
| 2026-04-26 11:10 | 53.75499 | 22.42160 | 32140 ft | 437 kts | 230° |
| 2026-04-26 11:10 | 53.73230 | 22.38748 | 32452 ft | 437 kts | 230° |
| 2026-04-26 11:11 | 53.70961 | 22.35342 | 32821 ft | 435 kts | 230° |
| 2026-04-26 11:11 | 53.68697 | 22.31948 | 33187 ft | 434 kts | 230° |
| 2026-04-26 11:11 | 53.66444 | 22.28575 | 33522 ft | 433 kts | 230° |
| 2026-04-26 11:11 | 53.64189 | 22.25204 | 33852 ft | 432 kts | 230° |
| 2026-04-26 11:12 | 53.61940 | 22.21848 | 34168 ft | 431 kts | 230° |
| 2026-04-26 11:12 | 53.59699 | 22.18508 | 34413 ft | 431 kts | 229° |
| 2026-04-26 11:12 | 53.57448 | 22.15157 | 34625 ft | 432 kts | 229° |
| 2026-04-26 11:12 | 53.55194 | 22.11808 | 34828 ft | 432 kts | 229° |
| 2026-04-26 11:13 | 53.52935 | 22.08456 | 35060 ft | 433 kts | 229° |
| 2026-04-26 11:13 | 53.50709 | 22.05158 | 35277 ft | 433 kts | 229° |
| 2026-04-26 11:13 | 53.48443 | 22.01806 | 35489 ft | 434 kts | 229° |
| 2026-04-26 11:13 | 53.46179 | 21.98461 | 35696 ft | 434 kts | 229° |
| 2026-04-26 11:14 | 53.43913 | 21.95119 | 35915 ft | 434 kts | 229° |
| 2026-04-26 11:14 | 53.41642 | 21.91774 | 36041 ft | 435 kts | 229° |
| 2026-04-26 11:14 | 53.37832 | 21.86173 | 36047 ft | 434 kts | 229° |
| 2026-04-26 11:15 | 53.32554 | 21.78438 | 36046 ft | 434 kts | 229° |
| 2026-04-26 11:15 | 53.28004 | 21.71790 | 36051 ft | 435 kts | 229° |
| 2026-04-26 11:16 | 53.23446 | 21.65150 | 36051 ft | 434 kts | 229° |
| 2026-04-26 11:16 | 53.18883 | 21.58524 | 36061 ft | 435 kts | 229° |
| 2026-04-26 11:17 | 53.14315 | 21.51908 | 36062 ft | 435 kts | 229° |
| 2026-04-26 11:17 | 53.09738 | 21.45299 | 36068 ft | 436 kts | 229° |
| 2026-04-26 11:18 | 53.05156 | 21.38703 | 36069 ft | 435 kts | 229° |
| 2026-04-26 11:18 | 53.00596 | 21.32157 | 36080 ft | 436 kts | 229° |
| 2026-04-26 11:19 | 52.95997 | 21.25574 | 36082 ft | 436 kts | 229° |
| 2026-04-26 11:19 | 52.91392 | 21.19003 | 36087 ft | 437 kts | 229° |
| 2026-04-26 11:20 | 52.87562 | 21.13551 | 36085 ft | 437 kts | 229° |
| 2026-04-26 11:20 | 52.82164 | 21.05889 | 36089 ft | 438 kts | 229° |
| 2026-04-26 11:21 | 52.77537 | 20.99344 | 36096 ft | 438 kts | 229° |
| 2026-04-26 11:21 | 52.72906 | 20.92810 | 36098 ft | 438 kts | 229° |
| 2026-04-26 11:22 | 52.68258 | 20.86274 | 36106 ft | 438 kts | 229° |
| 2026-04-26 11:22 | 52.63645 | 20.79803 | 36108 ft | 439 kts | 229° |
| 2026-04-26 11:23 | 52.58985 | 20.73287 | 36125 ft | 439 kts | 229° |
| 2026-04-26 11:23 | 52.54326 | 20.66791 | 36118 ft | 440 kts | 229° |
| 2026-04-26 11:24 | 52.49652 | 20.60292 | 36123 ft | 440 kts | 229° |
| 2026-04-26 11:24 | 52.44979 | 20.53813 | 36126 ft | 440 kts | 229° |
| 2026-04-26 11:25 | 52.40301 | 20.47346 | 36128 ft | 440 kts | 229° |
| 2026-04-26 11:25 | 52.35640 | 20.40921 | 36124 ft | 441 kts | 229° |
| 2026-04-26 11:26 | 52.31708 | 20.35515 | 36122 ft | 441 kts | 229° |
| 2026-04-26 11:26 | 52.27007 | 20.29069 | 36124 ft | 441 kts | 229° |
| 2026-04-26 11:27 | 52.22331 | 20.22676 | 36127 ft | 441 kts | 228° |
| 2026-04-26 11:27 | 52.17615 | 20.16246 | 36131 ft | 442 kts | 228° |
| 2026-04-26 11:28 | 52.12897 | 20.09832 | 36140 ft | 442 kts | 228° |
| 2026-04-26 11:28 | 52.08172 | 20.03426 | 36144 ft | 442 kts | 228° |
| 2026-04-26 11:29 | 52.03439 | 19.97030 | 36235 ft | 442 kts | 232° |
| 2026-04-26 11:29 | 52.01061 | 19.93815 | 35990 ft | 447 kts | 232° |
| 2026-04-26 11:29 | 51.99100 | 19.90156 | 36181 ft | 419 kts | 245° |
| 2026-04-26 11:30 | 51.97092 | 19.86558 | 36109 ft | 446 kts | 230° |
| 2026-04-26 11:30 | 51.94465 | 19.83798 | 36147 ft | 461 kts | 221° |
| 2026-04-26 11:30 | 51.89336 | 19.77845 | 36179 ft | 454 kts | 230° |
| 2026-04-26 11:31 | 51.84383 | 19.71385 | 36164 ft | 457 kts | 230° |
| 2026-04-26 11:31 | 51.79524 | 19.64794 | 36178 ft | 451 kts | 234° |
| 2026-04-26 11:32 | 51.74888 | 19.57971 | 36176 ft | 451 kts | 233° |
| 2026-04-26 11:32 | 51.70226 | 19.51178 | 36176 ft | 451 kts | 233° |
| 2026-04-26 11:33 | 51.65560 | 19.44404 | 36170 ft | 451 kts | 233° |
| 2026-04-26 11:33 | 51.60934 | 19.37707 | 36182 ft | 450 kts | 233° |
| 2026-04-26 11:34 | 51.56271 | 19.30976 | 36174 ft | 450 kts | 232° |
| 2026-04-26 11:34 | 51.51618 | 19.24278 | 36178 ft | 449 kts | 232° |
| 2026-04-26 11:35 | 51.47298 | 19.17237 | 36184 ft | 440 kts | 238° |
| 2026-04-26 11:35 | 51.43114 | 19.10043 | 36189 ft | 440 kts | 237° |
| 2026-04-26 11:36 | 51.38912 | 19.02921 | 36189 ft | 440 kts | 237° |
| 2026-04-26 11:36 | 51.34707 | 18.95824 | 36193 ft | 439 kts | 237° |
| 2026-04-26 11:37 | 51.30506 | 18.88752 | 36199 ft | 439 kts | 236° |
| 2026-04-26 11:37 | 51.26326 | 18.81739 | 36201 ft | 438 kts | 236° |
| 2026-04-26 11:38 | 51.22123 | 18.74705 | 36194 ft | 437 kts | 236° |
| 2026-04-26 11:38 | 51.17919 | 18.67689 | 36196 ft | 437 kts | 236° |
| 2026-04-26 11:39 | 51.13721 | 18.60704 | 36207 ft | 436 kts | 236° |
| 2026-04-26 11:39 | 51.09528 | 18.53745 | 36209 ft | 436 kts | 235° |
| 2026-04-26 11:40 | 51.05320 | 18.46782 | 36210 ft | 436 kts | 235° |
| 2026-04-26 11:40 | 51.01145 | 18.39892 | 36212 ft | 436 kts | 235° |
| 2026-04-26 11:42 | 50.84267 | 18.12235 | 36217 ft | 436 kts | 234° |
| 2026-04-26 11:43 | 50.80037 | 18.05352 | 36222 ft | 436 kts | 234° |
| 2026-04-26 11:43 | 50.75827 | 17.98520 | 36224 ft | 436 kts | 234° |
| 2026-04-26 11:44 | 50.71588 | 17.91659 | 36227 ft | 436 kts | 233° |
| 2026-04-26 11:44 | 50.67344 | 17.84809 | 36228 ft | 436 kts | 233° |
| 2026-04-26 11:45 | 50.63098 | 17.77975 | 36229 ft | 436 kts | 233° |
| 2026-04-26 11:45 | 50.58857 | 17.71169 | 36233 ft | 435 kts | 233° |
| 2026-04-26 11:46 | 50.54611 | 17.64371 | 36234 ft | 435 kts | 233° |
| 2026-04-26 11:46 | 50.50362 | 17.57588 | 36237 ft | 435 kts | 232° |
| 2026-04-26 11:47 | 50.46142 | 17.50870 | 36238 ft | 434 kts | 232° |
| 2026-04-26 11:47 | 50.41887 | 17.44113 | 36235 ft | 434 kts | 232° |
| 2026-04-26 11:48 | 50.37638 | 17.37387 | 36238 ft | 433 kts | 232° |
| 2026-04-26 11:48 | 50.33397 | 17.30689 | 36238 ft | 433 kts | 232° |
| 2026-04-26 11:49 | 50.29152 | 17.24003 | 36236 ft | 432 kts | 232° |
| 2026-04-26 11:49 | 50.24916 | 17.17350 | 36240 ft | 432 kts | 231° |
| 2026-04-26 11:50 | 50.20671 | 17.10699 | 36244 ft | 432 kts | 231° |
| 2026-04-26 11:50 | 50.16426 | 17.04068 | 36226 ft | 432 kts | 231° |
| 2026-04-26 11:51 | 50.12205 | 16.97491 | 36228 ft | 432 kts | 231° |
| 2026-04-26 11:51 | 50.07959 | 16.90892 | 36235 ft | 431 kts | 231° |
| 2026-04-26 11:52 | 50.04396 | 16.85369 | 36222 ft | 431 kts | 231° |
| 2026-04-26 11:52 | 49.99446 | 16.77715 | 36228 ft | 431 kts | 230° |
| 2026-04-26 11:53 | 49.95184 | 16.71144 | 36237 ft | 431 kts | 230° |
| 2026-04-26 11:54 | 49.88789 | 16.61317 | 36233 ft | 431 kts | 230° |
| 2026-04-26 11:54 | 49.84551 | 16.54827 | 36237 ft | 431 kts | 230° |
| 2026-04-26 11:55 | 49.80286 | 16.48311 | 36234 ft | 431 kts | 230° |
| 2026-04-26 11:55 | 49.76016 | 16.41804 | 36240 ft | 431 kts | 230° |
| 2026-04-26 11:56 | 49.71738 | 16.35305 | 36242 ft | 431 kts | 230° |
| 2026-04-26 11:56 | 49.67458 | 16.28816 | 36245 ft | 431 kts | 229° |
| 2026-04-26 11:57 | 49.63176 | 16.22343 | 36243 ft | 431 kts | 229° |
| 2026-04-26 11:57 | 49.58887 | 16.15876 | 36244 ft | 431 kts | 229° |
| 2026-04-26 11:58 | 49.54599 | 16.09428 | 36240 ft | 431 kts | 229° |
| 2026-04-26 11:58 | 49.50329 | 16.03023 | 36241 ft | 431 kts | 229° |
| 2026-04-26 11:59 | 49.46038 | 15.96602 | 36233 ft | 430 kts | 229° |
| 2026-04-26 11:59 | 49.41740 | 15.90188 | 36235 ft | 430 kts | 228° |
| 2026-04-26 12:00 | 49.37442 | 15.83790 | 36233 ft | 430 kts | 228° |
| 2026-04-26 12:00 | 49.33134 | 15.77394 | 36236 ft | 430 kts | 228° |
| 2026-04-26 12:01 | 49.28852 | 15.71054 | 36234 ft | 430 kts | 228° |
| 2026-04-26 12:01 | 49.24547 | 15.64694 | 36243 ft | 430 kts | 228° |
| 2026-04-26 12:02 | 49.20234 | 15.58340 | 36237 ft | 430 kts | 227° |
| 2026-04-26 12:02 | 49.15911 | 15.51988 | 36247 ft | 430 kts | 227° |
| 2026-04-26 12:03 | 49.11594 | 15.45658 | 36247 ft | 431 kts | 227° |
| 2026-04-26 12:03 | 49.07267 | 15.39331 | 36242 ft | 431 kts | 227° |
| 2026-04-26 12:04 | 49.02931 | 15.33009 | 36245 ft | 431 kts | 227° |
| 2026-04-26 12:04 | 48.98619 | 15.26736 | 36244 ft | 431 kts | 227° |
| 2026-04-26 12:05 | 48.94273 | 15.20430 | 36242 ft | 431 kts | 226° |
| 2026-04-26 12:05 | 48.89931 | 15.14144 | 36248 ft | 431 kts | 226° |
| 2026-04-26 12:06 | 48.85577 | 15.07859 | 36241 ft | 431 kts | 226° |
| 2026-04-26 12:06 | 48.81223 | 15.01589 | 36242 ft | 431 kts | 226° |
| 2026-04-26 12:07 | 48.76897 | 14.95375 | 36244 ft | 431 kts | 226° |
| 2026-04-26 12:07 | 48.72539 | 14.89129 | 36247 ft | 431 kts | 226° |
| 2026-04-26 12:08 | 48.68180 | 14.82900 | 36241 ft | 431 kts | 226° |
| 2026-04-26 12:08 | 48.63823 | 14.76687 | 36248 ft | 430 kts | 226° |
| 2026-04-26 12:09 | 48.59460 | 14.70482 | 36235 ft | 430 kts | 226° |
| 2026-04-26 12:09 | 48.55096 | 14.64291 | 36235 ft | 430 kts | 226° |
| 2026-04-26 12:10 | 48.50730 | 14.58114 | 36229 ft | 430 kts | 226° |
| 2026-04-26 12:10 | 48.46360 | 14.51944 | 36226 ft | 430 kts | 226° |
| 2026-04-26 12:11 | 48.41989 | 14.45789 | 36218 ft | 430 kts | 226° |
| 2026-04-26 12:11 | 48.37611 | 14.39639 | 36213 ft | 430 kts | 226° |
| 2026-04-26 12:12 | 48.33232 | 14.33504 | 36214 ft | 430 kts | 225° |
| 2026-04-26 12:12 | 48.28879 | 14.27419 | 36211 ft | 430 kts | 225° |
| 2026-04-26 12:13 | 48.24489 | 14.21298 | 36207 ft | 430 kts | 225° |
| 2026-04-26 12:13 | 48.20095 | 14.15186 | 36209 ft | 431 kts | 225° |
| 2026-04-26 12:14 | 48.15696 | 14.09083 | 36211 ft | 430 kts | 225° |
| 2026-04-26 12:14 | 48.11298 | 14.02995 | 36209 ft | 430 kts | 225° |
| 2026-04-26 12:15 | 48.07646 | 13.97953 | 36211 ft | 431 kts | 225° |
| 2026-04-26 12:15 | 48.03236 | 13.91874 | 36214 ft | 431 kts | 225° |
| 2026-04-26 12:16 | 47.98104 | 13.84822 | 36214 ft | 431 kts | 225° |
| 2026-04-26 12:16 | 47.94407 | 13.79754 | 36206 ft | 431 kts | 225° |
| 2026-04-26 12:17 | 47.89991 | 13.73712 | 36207 ft | 431 kts | 225° |
| 2026-04-26 12:17 | 47.85591 | 13.67709 | 36206 ft | 431 kts | 225° |
| 2026-04-26 12:18 | 47.81172 | 13.61693 | 36209 ft | 430 kts | 225° |
| 2026-04-26 12:18 | 47.76744 | 13.55679 | 36203 ft | 431 kts | 225° |
| 2026-04-26 12:19 | 47.72309 | 13.49670 | 36200 ft | 431 kts | 225° |
| 2026-04-26 12:19 | 47.67873 | 13.43675 | 36199 ft | 431 kts | 225° |
| 2026-04-26 12:20 | 47.63464 | 13.37730 | 36198 ft | 431 kts | 224° |
| 2026-04-26 12:20 | 47.59017 | 13.31748 | 36198 ft | 431 kts | 224° |
| 2026-04-26 12:21 | 47.54571 | 13.25782 | 36193 ft | 431 kts | 224° |
| 2026-04-26 12:21 | 47.50133 | 13.19841 | 36198 ft | 431 kts | 224° |
| 2026-04-26 12:22 | 47.45679 | 13.13893 | 36186 ft | 431 kts | 224° |
| 2026-04-26 12:22 | 47.41228 | 13.07963 | 36186 ft | 431 kts | 224° |
| 2026-04-26 12:23 | 47.36780 | 13.02050 | 36174 ft | 430 kts | 224° |
| 2026-04-26 12:23 | 47.32326 | 12.96146 | 36177 ft | 430 kts | 224° |
| 2026-04-26 12:24 | 47.27895 | 12.90283 | 36179 ft | 430 kts | 224° |
| 2026-04-26 12:24 | 47.23440 | 12.84404 | 36175 ft | 430 kts | 224° |
| 2026-04-26 12:25 | 47.16749 | 12.75599 | 36185 ft | 430 kts | 224° |
| 2026-04-26 12:25 | 47.12277 | 12.69733 | 36165 ft | 430 kts | 224° |
| 2026-04-26 12:26 | 47.07808 | 12.63883 | 36177 ft | 431 kts | 224° |
| 2026-04-26 12:26 | 47.03336 | 12.58043 | 36165 ft | 430 kts | 224° |
| 2026-04-26 12:27 | 46.98855 | 12.52205 | 36172 ft | 432 kts | 224° |
| 2026-04-26 12:27 | 46.96608 | 12.49282 | 36417 ft | 431 kts | 224° |
| 2026-04-26 12:27 | 46.94393 | 12.46404 | 36658 ft | 432 kts | 224° |
| 2026-04-26 12:28 | 46.92144 | 12.43488 | 36889 ft | 432 kts | 224° |
| 2026-04-26 12:28 | 46.89899 | 12.40577 | 37130 ft | 431 kts | 224° |
| 2026-04-26 12:28 | 46.85405 | 12.34738 | 37176 ft | 431 kts | 223° |
| 2026-04-26 12:29 | 46.80915 | 12.28943 | 37168 ft | 430 kts | 226° |
| 2026-04-26 12:30 | 46.75432 | 12.18806 | 37201 ft | 426 kts | 235° |
| 2026-04-26 12:30 | 46.71832 | 12.11917 | 37176 ft | 427 kts | 234° |
| 2026-04-26 12:31 | 46.66429 | 12.01578 | 37166 ft | 428 kts | 234° |
| 2026-04-26 12:31 | 46.62825 | 11.94677 | 37158 ft | 428 kts | 234° |
| 2026-04-26 12:32 | 46.59205 | 11.87809 | 37119 ft | 428 kts | 234° |
| 2026-04-26 12:33 | 46.53811 | 11.77562 | 37108 ft | 428 kts | 234° |
| 2026-04-26 12:33 | 46.50161 | 11.70666 | 37098 ft | 428 kts | 234° |
| 2026-04-26 12:34 | 46.46556 | 11.63867 | 37078 ft | 428 kts | 234° |
| 2026-04-26 12:34 | 46.42920 | 11.57023 | 37068 ft | 428 kts | 234° |
| 2026-04-26 12:35 | 46.39279 | 11.50185 | 37061 ft | 428 kts | 234° |
| 2026-04-26 12:35 | 46.35633 | 11.43355 | 37057 ft | 428 kts | 234° |
| 2026-04-26 12:36 | 46.31985 | 11.36538 | 37066 ft | 428 kts | 234° |
| 2026-04-26 12:36 | 46.30157 | 11.33128 | 37206 ft | 428 kts | 234° |
| 2026-04-26 12:36 | 46.28332 | 11.29729 | 37221 ft | 428 kts | 234° |
| 2026-04-26 12:37 | 46.24671 | 11.22922 | 37232 ft | 429 kts | 234° |
| 2026-04-26 12:37 | 46.21010 | 11.16128 | 37235 ft | 429 kts | 234° |
| 2026-04-26 12:38 | 46.17336 | 11.09331 | 37210 ft | 429 kts | 233° |
| 2026-04-26 12:38 | 46.13674 | 11.02570 | 37200 ft | 430 kts | 233° |
| 2026-04-26 12:39 | 46.09994 | 10.95793 | 37193 ft | 429 kts | 233° |
| 2026-04-26 12:39 | 46.06306 | 10.89015 | 37179 ft | 429 kts | 233° |
| 2026-04-26 12:40 | 46.02625 | 10.82271 | 37151 ft | 429 kts | 233° |
| 2026-04-26 12:40 | 45.98935 | 10.75524 | 37135 ft | 429 kts | 233° |
| 2026-04-26 12:41 | 45.95238 | 10.68782 | 37154 ft | 429 kts | 233° |
| 2026-04-26 12:41 | 45.91535 | 10.62042 | 37140 ft | 429 kts | 233° |
| 2026-04-26 12:42 | 45.87829 | 10.55317 | 37140 ft | 430 kts | 233° |
| 2026-04-26 12:42 | 45.84143 | 10.48631 | 37129 ft | 429 kts | 233° |
| 2026-04-26 12:43 | 45.80600 | 10.41766 | 37111 ft | 430 kts | 231° |
| 2026-04-26 12:43 | 45.76751 | 10.35210 | 37110 ft | 430 kts | 232° |
| 2026-04-26 12:44 | 45.73005 | 10.28557 | 37105 ft | 429 kts | 233° |
| 2026-04-26 12:44 | 45.69273 | 10.21874 | 37102 ft | 430 kts | 233° |
| 2026-04-26 12:45 | 45.65541 | 10.15197 | 37098 ft | 430 kts | 233° |
| 2026-04-26 12:45 | 45.61801 | 10.08520 | 37099 ft | 430 kts | 233° |
| 2026-04-26 12:46 | 45.58059 | 10.01856 | 37097 ft | 430 kts | 233° |
| 2026-04-26 12:46 | 45.54332 | 9.95233 | 37095 ft | 430 kts | 233° |
| 2026-04-26 12:47 | 45.50581 | 9.88585 | 37093 ft | 430 kts | 233° |
| 2026-04-26 12:47 | 45.46830 | 9.81952 | 37094 ft | 430 kts | 233° |
| 2026-04-26 12:48 | 45.43068 | 9.75317 | 37140 ft | 430 kts | 233° |
| 2026-04-26 12:48 | 45.39310 | 9.68700 | 37146 ft | 430 kts | 233° |
| 2026-04-26 12:49 | 45.35569 | 9.62132 | 37139 ft | 430 kts | 233° |
| 2026-04-26 12:49 | 45.31801 | 9.55531 | 37093 ft | 430 kts | 233° |
| 2026-04-26 12:50 | 45.28027 | 9.48934 | 37091 ft | 430 kts | 233° |
| 2026-04-26 12:50 | 45.24243 | 9.42338 | 37090 ft | 430 kts | 233° |
| 2026-04-26 12:51 | 45.20462 | 9.35760 | 37097 ft | 430 kts | 232° |
| 2026-04-26 12:51 | 45.16678 | 9.29191 | 37091 ft | 430 kts | 232° |
| 2026-04-26 12:52 | 45.12894 | 9.22640 | 37095 ft | 430 kts | 232° |
| 2026-04-26 12:52 | 45.09106 | 9.16096 | 37108 ft | 429 kts | 232° |
| 2026-04-26 12:53 | 45.05336 | 9.09598 | 37116 ft | 429 kts | 232° |
| 2026-04-26 12:53 | 45.01543 | 9.03075 | 37116 ft | 429 kts | 232° |
| 2026-04-26 12:54 | 44.97746 | 8.96562 | 37121 ft | 429 kts | 232° |
| 2026-04-26 12:54 | 44.93946 | 8.90057 | 37125 ft | 429 kts | 232° |
| 2026-04-26 12:55 | 44.90140 | 8.83557 | 37126 ft | 429 kts | 232° |
| 2026-04-26 12:55 | 44.86331 | 8.77068 | 37112 ft | 429 kts | 232° |
| 2026-04-26 12:56 | 44.82518 | 8.70585 | 37129 ft | 430 kts | 232° |
| 2026-04-26 12:56 | 44.78698 | 8.64107 | 37118 ft | 430 kts | 232° |
| 2026-04-26 12:57 | 44.74901 | 8.57681 | 37118 ft | 430 kts | 232° |
| 2026-04-26 12:57 | 44.71072 | 8.51216 | 37115 ft | 430 kts | 232° |
| 2026-04-26 12:58 | 44.65315 | 8.41524 | 37124 ft | 430 kts | 232° |
| 2026-04-26 12:58 | 44.61470 | 8.35067 | 37128 ft | 430 kts | 232° |
| 2026-04-26 12:59 | 44.57626 | 8.28630 | 37123 ft | 430 kts | 232° |
| 2026-04-26 12:59 | 44.53776 | 8.22195 | 37119 ft | 431 kts | 232° |
| 2026-04-26 13:00 | 44.49922 | 8.15764 | 37117 ft | 431 kts | 232° |
| 2026-04-26 13:00 | 44.46091 | 8.09387 | 37116 ft | 431 kts | 232° |
| 2026-04-26 13:01 | 44.42231 | 8.02975 | 37127 ft | 430 kts | 232° |
| 2026-04-26 13:01 | 44.38367 | 7.96570 | 37117 ft | 430 kts | 232° |
| 2026-04-26 13:02 | 44.34500 | 7.90175 | 37123 ft | 431 kts | 232° |
| 2026-04-26 13:02 | 44.30633 | 7.83794 | 37127 ft | 430 kts | 232° |
| 2026-04-26 13:03 | 44.27424 | 7.78485 | 37124 ft | 430 kts | 233° |
| 2026-04-26 13:03 | 44.25454 | 7.75349 | 37106 ft | 431 kts | 222° |
| 2026-04-26 13:03 | 44.23073 | 7.72809 | 37140 ft | 432 kts | 221° |
| 2026-04-26 13:04 | 44.18500 | 7.67344 | 37156 ft | 433 kts | 223° |
| 2026-04-26 13:04 | 44.14063 | 7.61704 | 37143 ft | 430 kts | 231° |
| 2026-04-26 13:05 | 44.10129 | 7.55424 | 37165 ft | 431 kts | 231° |
| 2026-04-26 13:05 | 44.06221 | 7.49181 | 37157 ft | 430 kts | 231° |
| 2026-04-26 13:06 | 44.02288 | 7.42905 | 37158 ft | 431 kts | 231° |
| 2026-04-26 13:06 | 43.98349 | 7.36633 | 37172 ft | 431 kts | 231° |
| 2026-04-26 13:07 | 43.94401 | 7.30360 | 37158 ft | 431 kts | 231° |
| 2026-04-26 13:07 | 43.90453 | 7.24102 | 37159 ft | 431 kts | 231° |
| 2026-04-26 13:08 | 43.86505 | 7.17856 | 37163 ft | 431 kts | 230° |
| 2026-04-26 13:08 | 43.82571 | 7.11647 | 37150 ft | 430 kts | 230° |
| 2026-04-26 13:09 | 43.78619 | 7.05422 | 37160 ft | 431 kts | 230° |
| 2026-04-26 13:09 | 43.74658 | 6.99196 | 37158 ft | 431 kts | 230° |
| 2026-04-26 13:10 | 43.71438 | 6.92347 | 37161 ft | 425 kts | 249° |
| 2026-04-26 13:10 | 43.69124 | 6.84779 | 37158 ft | 427 kts | 248° |
| 2026-04-26 13:11 | 43.66860 | 6.77189 | 37147 ft | 427 kts | 249° |
| 2026-04-26 13:11 | 43.64610 | 6.69589 | 37147 ft | 427 kts | 249° |
| 2026-04-26 13:12 | 43.62359 | 6.61999 | 37147 ft | 427 kts | 249° |
| 2026-04-26 13:12 | 43.60103 | 6.54416 | 37137 ft | 427 kts | 249° |
| 2026-04-26 13:13 | 43.57844 | 6.46842 | 37134 ft | 427 kts | 248° |
| 2026-04-26 13:13 | 43.55594 | 6.39323 | 37129 ft | 427 kts | 249° |
| 2026-04-26 13:14 | 43.53325 | 6.31763 | 37129 ft | 426 kts | 248° |
| 2026-04-26 13:14 | 43.51052 | 6.24210 | 37130 ft | 426 kts | 248° |
| 2026-04-26 13:15 | 43.48775 | 6.16666 | 37130 ft | 426 kts | 248° |
| 2026-04-26 13:15 | 43.46496 | 6.09135 | 37126 ft | 426 kts | 248° |
| 2026-04-26 13:16 | 43.44210 | 6.01611 | 37125 ft | 426 kts | 248° |
| 2026-04-26 13:16 | 43.41932 | 5.94130 | 37127 ft | 426 kts | 248° |
| 2026-04-26 13:17 | 43.38484 | 5.82848 | 37119 ft | 426 kts | 248° |
| 2026-04-26 13:18 | 43.35030 | 5.71595 | 37119 ft | 426 kts | 248° |
| 2026-04-26 13:19 | 43.31568 | 5.60364 | 37121 ft | 426 kts | 248° |
| 2026-04-26 13:19 | 43.29261 | 5.52909 | 37126 ft | 426 kts | 248° |
| 2026-04-26 13:20 | 43.26944 | 5.45440 | 37125 ft | 426 kts | 248° |
| 2026-04-26 13:20 | 43.24619 | 5.37966 | 37125 ft | 426 kts | 248° |
| 2026-04-26 13:21 | 43.22289 | 5.30500 | 37127 ft | 426 kts | 248° |
| 2026-04-26 13:21 | 43.19952 | 5.23034 | 37125 ft | 426 kts | 248° |
| 2026-04-26 13:22 | 43.17628 | 5.15632 | 37134 ft | 426 kts | 248° |
| 2026-04-26 13:22 | 43.15283 | 5.08180 | 37133 ft | 426 kts | 248° |
| 2026-04-26 13:23 | 43.12934 | 5.00739 | 37125 ft | 425 kts | 248° |
| 2026-04-26 13:23 | 43.10578 | 4.93298 | 37134 ft | 426 kts | 248° |
| 2026-04-26 13:24 | 43.08217 | 4.85860 | 37129 ft | 426 kts | 247° |
| 2026-04-26 13:24 | 43.05693 | 4.78600 | 37118 ft | 426 kts | 235° |
| 2026-04-26 13:24 | 43.03689 | 4.75621 | 37141 ft | 428 kts | 224° |
| 2026-04-26 13:25 | 43.01491 | 4.72843 | 37125 ft | 430 kts | 224° |
| 2026-04-26 13:25 | 42.97057 | 4.67355 | 37133 ft | 430 kts | 224° |
| 2026-04-26 13:26 | 42.92573 | 4.61920 | 37137 ft | 430 kts | 223° |
| 2026-04-26 13:26 | 42.88081 | 4.56507 | 37129 ft | 431 kts | 223° |
| 2026-04-26 13:27 | 42.83583 | 4.51100 | 37139 ft | 431 kts | 223° |
| 2026-04-26 13:27 | 42.79088 | 4.45708 | 37128 ft | 431 kts | 223° |
| 2026-04-26 13:28 | 42.74587 | 4.40319 | 37135 ft | 431 kts | 223° |
| 2026-04-26 13:28 | 42.70082 | 4.34935 | 37127 ft | 431 kts | 223° |
| 2026-04-26 13:29 | 42.65602 | 4.29594 | 37141 ft | 431 kts | 223° |
| 2026-04-26 13:29 | 42.61081 | 4.24214 | 37126 ft | 431 kts | 223° |
| 2026-04-26 13:30 | 42.56566 | 4.18852 | 37134 ft | 431 kts | 223° |
| 2026-04-26 13:30 | 42.52041 | 4.13489 | 37138 ft | 432 kts | 223° |
| 2026-04-26 13:31 | 42.47515 | 4.08134 | 37132 ft | 432 kts | 223° |
| 2026-04-26 13:31 | 42.43005 | 4.02810 | 37137 ft | 433 kts | 223° |
| 2026-04-26 13:32 | 42.38466 | 3.97462 | 37138 ft | 433 kts | 223° |
| 2026-04-26 13:32 | 42.33918 | 3.92113 | 37136 ft | 433 kts | 223° |
| 2026-04-26 13:33 | 42.29366 | 3.86769 | 37133 ft | 433 kts | 223° |
| 2026-04-26 13:33 | 42.25121 | 3.81044 | 37140 ft | 429 kts | 237° |
| 2026-04-26 13:34 | 42.21657 | 3.74511 | 37135 ft | 431 kts | 235° |
| 2026-04-26 13:34 | 42.18165 | 3.67920 | 37133 ft | 432 kts | 236° |
| 2026-04-26 13:35 | 42.14666 | 3.61300 | 37133 ft | 432 kts | 236° |
| 2026-04-26 13:35 | 42.11194 | 3.54743 | 37133 ft | 432 kts | 235° |
| 2026-04-26 13:36 | 42.07698 | 3.48152 | 37131 ft | 433 kts | 235° |
| 2026-04-26 13:36 | 42.04188 | 3.41553 | 37131 ft | 433 kts | 235° |
| 2026-04-26 13:37 | 42.00678 | 3.34967 | 37130 ft | 433 kts | 235° |
| 2026-04-26 13:37 | 41.97166 | 3.28390 | 37127 ft | 433 kts | 235° |
| 2026-04-26 13:38 | 41.93644 | 3.21810 | 37125 ft | 434 kts | 235° |
| 2026-04-26 13:38 | 41.90115 | 3.15229 | 37125 ft | 434 kts | 235° |
| 2026-04-26 13:39 | 41.86610 | 3.08710 | 37126 ft | 434 kts | 235° |
| 2026-04-26 13:39 | 41.83073 | 3.02144 | 37125 ft | 433 kts | 235° |
| 2026-04-26 13:40 | 41.79540 | 2.95600 | 37123 ft | 433 kts | 235° |
| 2026-04-26 13:40 | 41.75997 | 2.89053 | 37128 ft | 434 kts | 235° |
| 2026-04-26 13:41 | 41.72448 | 2.82505 | 37126 ft | 434 kts | 235° |
| 2026-04-26 13:41 | 41.68895 | 2.75977 | 37128 ft | 435 kts | 233° |
| 2026-04-26 13:42 | 41.65172 | 2.69593 | 37132 ft | 435 kts | 233° |
| 2026-04-26 13:42 | 41.61483 | 2.63248 | 37127 ft | 435 kts | 233° |
| 2026-04-26 13:43 | 41.57766 | 2.56862 | 37131 ft | 435 kts | 233° |
| 2026-04-26 13:43 | 41.54050 | 2.50489 | 37132 ft | 435 kts | 233° |
| 2026-04-26 13:44 | 41.50327 | 2.44120 | 37130 ft | 435 kts | 232° |
| 2026-04-26 13:44 | 41.46600 | 2.37756 | 37131 ft | 435 kts | 232° |
| 2026-04-26 13:45 | 41.42874 | 2.31406 | 37130 ft | 435 kts | 232° |
| 2026-04-26 13:45 | 41.39135 | 2.25049 | 37154 ft | 435 kts | 232° |
| 2026-04-26 13:46 | 41.35397 | 2.18705 | 37156 ft | 435 kts | 232° |
| 2026-04-26 13:46 | 41.31679 | 2.12407 | 37154 ft | 435 kts | 232° |
| 2026-04-26 13:47 | 41.27657 | 2.06384 | 37162 ft | 436 kts | 229° |
| 2026-04-26 13:47 | 41.23600 | 2.00370 | 37158 ft | 437 kts | 229° |
| 2026-04-26 13:48 | 41.19547 | 1.94346 | 37155 ft | 438 kts | 229° |
| 2026-04-26 13:48 | 41.15478 | 1.88308 | 37152 ft | 438 kts | 229° |
| 2026-04-26 13:49 | 41.11408 | 1.82280 | 37152 ft | 439 kts | 229° |
| 2026-04-26 13:49 | 41.07334 | 1.76257 | 37153 ft | 439 kts | 229° |
| 2026-04-26 13:50 | 41.03243 | 1.70246 | 37149 ft | 439 kts | 228° |
| 2026-04-26 13:50 | 40.99148 | 1.64249 | 37158 ft | 439 kts | 228° |
| 2026-04-26 13:51 | 40.95071 | 1.58289 | 37155 ft | 439 kts | 228° |
| 2026-04-26 13:51 | 40.90966 | 1.52302 | 37157 ft | 439 kts | 228° |
| 2026-04-26 13:52 | 40.87556 | 1.47335 | 37151 ft | 439 kts | 228° |
| 2026-04-26 13:52 | 40.83438 | 1.41355 | 37155 ft | 440 kts | 228° |
| 2026-04-26 13:53 | 40.79318 | 1.35383 | 37154 ft | 440 kts | 228° |
| 2026-04-26 13:53 | 40.75192 | 1.29415 | 37155 ft | 440 kts | 228° |
| 2026-04-26 13:54 | 40.71072 | 1.23463 | 37153 ft | 440 kts | 228° |
| 2026-04-26 13:54 | 40.66939 | 1.17500 | 37150 ft | 440 kts | 228° |
| 2026-04-26 13:55 | 40.61440 | 1.09585 | 37151 ft | 440 kts | 228° |
| 2026-04-26 13:56 | 40.54558 | 0.99710 | 37149 ft | 441 kts | 227° |
| 2026-04-26 13:56 | 40.50408 | 0.93777 | 37145 ft | 441 kts | 227° |
| 2026-04-26 13:57 | 40.46249 | 0.87842 | 37145 ft | 441 kts | 227° |
| 2026-04-26 13:57 | 40.42082 | 0.81908 | 37144 ft | 442 kts | 227° |
| 2026-04-26 13:58 | 40.37912 | 0.75980 | 37144 ft | 442 kts | 227° |
| 2026-04-26 13:58 | 40.33753 | 0.70081 | 37142 ft | 442 kts | 227° |
| 2026-04-26 13:59 | 40.29563 | 0.64148 | 37142 ft | 443 kts | 227° |
| 2026-04-26 13:59 | 40.25371 | 0.58226 | 37142 ft | 443 kts | 227° |
| 2026-04-26 14:00 | 40.16966 | 0.46392 | 37142 ft | 444 kts | 227° |
| 2026-04-26 14:01 | 40.12754 | 0.40478 | 37149 ft | 444 kts | 227° |
| 2026-04-26 14:01 | 40.08536 | 0.34568 | 37153 ft | 445 kts | 227° |
| 2026-04-26 14:02 | 40.04333 | 0.28690 | 37149 ft | 445 kts | 227° |
| 2026-04-26 14:02 | 40.00104 | 0.22784 | 37152 ft | 445 kts | 227° |
| 2026-04-26 14:03 | 39.95875 | 0.16887 | 37147 ft | 445 kts | 227° |
| 2026-04-26 14:03 | 39.91637 | 0.10987 | 37141 ft | 445 kts | 227° |
| 2026-04-26 14:04 | 39.87400 | 0.05100 | 37137 ft | 446 kts | 227° |
| 2026-04-26 14:04 | 39.83176 | -0.00756 | 37138 ft | 446 kts | 227° |
| 2026-04-26 14:05 | 39.78924 | -0.06637 | 37135 ft | 446 kts | 227° |
| 2026-04-26 14:05 | 39.74661 | -0.12523 | 37136 ft | 446 kts | 227° |
| 2026-04-26 14:06 | 39.70400 | -0.18395 | 37134 ft | 446 kts | 226° |
| 2026-04-26 14:06 | 39.66159 | -0.24226 | 37133 ft | 447 kts | 226° |
| 2026-04-26 14:07 | 39.61889 | -0.30087 | 37130 ft | 447 kts | 226° |
| 2026-04-26 14:07 | 39.57608 | -0.35953 | 37130 ft | 447 kts | 226° |
| 2026-04-26 14:08 | 39.53323 | -0.41813 | 37131 ft | 448 kts | 226° |
| 2026-04-26 14:08 | 39.49041 | -0.47674 | 37127 ft | 448 kts | 229° |
| 2026-04-26 14:09 | 39.45218 | -0.54043 | 37130 ft | 448 kts | 233° |
| 2026-04-26 14:09 | 39.41450 | -0.60462 | 37131 ft | 448 kts | 233° |
| 2026-04-26 14:10 | 39.37698 | -0.66851 | 37132 ft | 448 kts | 233° |
| 2026-04-26 14:10 | 39.33931 | -0.73257 | 37131 ft | 448 kts | 233° |
| 2026-04-26 14:11 | 39.28257 | -0.82872 | 37126 ft | 448 kts | 233° |
| 2026-04-26 14:11 | 39.24479 | -0.89270 | 37128 ft | 448 kts | 233° |
| 2026-04-26 14:12 | 39.20687 | -0.95671 | 37131 ft | 449 kts | 233° |
| 2026-04-26 14:12 | 39.16893 | -1.02065 | 37126 ft | 449 kts | 233° |
| 2026-04-26 14:13 | 39.11191 | -1.11647 | 37128 ft | 449 kts | 233° |
| 2026-04-26 14:14 | 39.07408 | -1.17988 | 37126 ft | 449 kts | 233° |
| 2026-04-26 14:14 | 39.03594 | -1.24371 | 37128 ft | 450 kts | 233° |
| 2026-04-26 14:15 | 38.99778 | -1.30742 | 37126 ft | 450 kts | 233° |
| 2026-04-26 14:15 | 38.95957 | -1.37110 | 37121 ft | 450 kts | 233° |
| 2026-04-26 14:16 | 38.92132 | -1.43473 | 37124 ft | 450 kts | 233° |
| 2026-04-26 14:16 | 38.88309 | -1.49819 | 37124 ft | 449 kts | 233° |
| 2026-04-26 14:17 | 38.84481 | -1.56162 | 37130 ft | 449 kts | 233° |
| 2026-04-26 14:17 | 38.80652 | -1.62493 | 37126 ft | 449 kts | 233° |
| 2026-04-26 14:18 | 38.76819 | -1.68817 | 37124 ft | 449 kts | 233° |
| 2026-04-26 14:18 | 38.72988 | -1.75129 | 37130 ft | 449 kts | 233° |
| 2026-04-26 14:19 | 38.69156 | -1.81423 | 37128 ft | 449 kts | 233° |
| 2026-04-26 14:19 | 38.65310 | -1.87729 | 37130 ft | 449 kts | 233° |
| 2026-04-26 14:20 | 38.61494 | -1.93975 | 37131 ft | 448 kts | 233° |
| 2026-04-26 14:20 | 38.57644 | -2.00262 | 37133 ft | 448 kts | 233° |
| 2026-04-26 14:21 | 38.53803 | -2.06532 | 37136 ft | 448 kts | 234° |
| 2026-04-26 14:21 | 38.49955 | -2.12791 | 37135 ft | 448 kts | 233° |
| 2026-04-26 14:22 | 38.46103 | -2.19046 | 37137 ft | 448 kts | 233° |
| 2026-04-26 14:22 | 38.42254 | -2.25287 | 37126 ft | 447 kts | 233° |
| 2026-04-26 14:23 | 38.38427 | -2.31482 | 37124 ft | 447 kts | 233° |
| 2026-04-26 14:23 | 38.34338 | -2.37460 | 37126 ft | 448 kts | 227° |
| 2026-04-26 14:24 | 38.30027 | -2.43194 | 37117 ft | 448 kts | 229° |
| 2026-04-26 14:24 | 38.25747 | -2.48959 | 37113 ft | 448 kts | 228° |
| 2026-04-26 14:25 | 38.21473 | -2.54713 | 37106 ft | 447 kts | 229° |
| 2026-04-26 14:25 | 38.17221 | -2.60429 | 37111 ft | 447 kts | 229° |
| 2026-04-26 14:26 | 38.12948 | -2.66161 | 37101 ft | 447 kts | 229° |
| 2026-04-26 14:26 | 38.08661 | -2.71902 | 37095 ft | 447 kts | 228° |
| 2026-04-26 14:27 | 38.04378 | -2.77631 | 37084 ft | 447 kts | 228° |
| 2026-04-26 14:27 | 38.00090 | -2.83352 | 37087 ft | 447 kts | 228° |
| 2026-04-26 14:28 | 37.95831 | -2.89023 | 37079 ft | 447 kts | 228° |
| 2026-04-26 14:28 | 37.91534 | -2.94703 | 37070 ft | 446 kts | 228° |
| 2026-04-26 14:29 | 37.87240 | -3.00372 | 37072 ft | 446 kts | 227° |
| 2026-04-26 14:29 | 37.82939 | -3.06040 | 37059 ft | 446 kts | 228° |
| 2026-04-26 14:30 | 37.78638 | -3.11698 | 37058 ft | 445 kts | 228° |
| 2026-04-26 14:30 | 37.74342 | -3.17340 | 37060 ft | 444 kts | 228° |
| 2026-04-26 14:30 | 37.72225 | -3.20116 | 36875 ft | 433 kts | 228° |
| 2026-04-26 14:31 | 37.70147 | -3.22838 | 36354 ft | 430 kts | 228° |
| 2026-04-26 14:31 | 37.68072 | -3.25555 | 35795 ft | 428 kts | 227° |
| 2026-04-26 14:31 | 37.66043 | -3.28218 | 35233 ft | 428 kts | 227° |
| 2026-04-26 14:31 | 37.63962 | -3.30930 | 34613 ft | 429 kts | 227° |
| 2026-04-26 14:32 | 37.61892 | -3.33640 | 34004 ft | 429 kts | 226° |
| 2026-04-26 14:32 | 37.59809 | -3.36338 | 33356 ft | 429 kts | 227° |
| 2026-04-26 14:32 | 37.57732 | -3.39053 | 32710 ft | 429 kts | 227° |
| 2026-04-26 14:32 | 37.55658 | -3.41758 | 32076 ft | 429 kts | 227° |
| 2026-04-26 14:33 | 37.53581 | -3.44463 | 31454 ft | 430 kts | 227° |
| 2026-04-26 14:33 | 37.51501 | -3.47168 | 30842 ft | 430 kts | 227° |
| 2026-04-26 14:33 | 37.49452 | -3.49829 | 30259 ft | 430 kts | 227° |
| 2026-04-26 14:33 | 37.47336 | -3.52576 | 29586 ft | 430 kts | 227° |
| 2026-04-26 14:34 | 37.45278 | -3.55246 | 28915 ft | 430 kts | 227° |
| 2026-04-26 14:34 | 37.43190 | -3.57951 | 28254 ft | 430 kts | 227° |
| 2026-04-26 14:34 | 37.41107 | -3.60649 | 27609 ft | 429 kts | 227° |
| 2026-04-26 14:34 | 37.39149 | -3.63463 | 26964 ft | 426 kts | 238° |
| 2026-04-26 14:35 | 37.37890 | -3.66807 | 26364 ft | 421 kts | 252° |
| 2026-04-26 14:35 | 37.36711 | -3.70177 | 25775 ft | 422 kts | 242° |
| 2026-04-26 14:35 | 37.35320 | -3.73417 | 25252 ft | 420 kts | 244° |
| 2026-04-26 14:35 | 37.34005 | -3.76674 | 24726 ft | 418 kts | 244° |
| 2026-04-26 14:36 | 37.32712 | -3.79932 | 24189 ft | 415 kts | 245° |
| 2026-04-26 14:36 | 37.31437 | -3.83180 | 23688 ft | 413 kts | 245° |
| 2026-04-26 14:36 | 37.30176 | -3.86410 | 23108 ft | 411 kts | 245° |
| 2026-04-26 14:36 | 37.28924 | -3.89620 | 22521 ft | 409 kts | 245° |
| 2026-04-26 14:37 | 37.27678 | -3.92816 | 21953 ft | 407 kts | 245° |
| 2026-04-26 14:37 | 37.26439 | -3.96003 | 21402 ft | 405 kts | 244° |
| 2026-04-26 14:37 | 37.25196 | -3.99173 | 20844 ft | 404 kts | 244° |
| 2026-04-26 14:37 | 37.23958 | -4.02334 | 20299 ft | 403 kts | 244° |
| 2026-04-26 14:38 | 37.22734 | -4.05479 | 19755 ft | 401 kts | 244° |
| 2026-04-26 14:38 | 37.21498 | -4.08620 | 19227 ft | 400 kts | 244° |
| 2026-04-26 14:38 | 37.20268 | -4.11749 | 18714 ft | 399 kts | 244° |
| 2026-04-26 14:38 | 37.19456 | -4.13817 | 18374 ft | 398 kts | 244° |
| 2026-04-26 14:39 | 37.17821 | -4.17976 | 17598 ft | 397 kts | 243° |
| 2026-04-26 14:39 | 37.17012 | -4.20032 | 17215 ft | 397 kts | 243° |
| 2026-04-26 14:39 | 37.15790 | -4.23136 | 16651 ft | 396 kts | 243° |
| 2026-04-26 14:39 | 37.14177 | -4.27229 | 15910 ft | 395 kts | 243° |
| 2026-04-26 14:40 | 37.13354 | -4.29313 | 15542 ft | 394 kts | 243° |
| 2026-04-26 14:40 | 37.11739 | -4.33381 | 14832 ft | 393 kts | 243° |
| 2026-04-26 14:40 | 37.10544 | -4.36417 | 14306 ft | 385 kts | 243° |
| 2026-04-26 14:40 | 37.09745 | -4.38441 | 13955 ft | 382 kts | 243° |
| 2026-04-26 14:41 | 37.08570 | -4.41411 | 13371 ft | 378 kts | 243° |
| 2026-04-26 14:41 | 37.07420 | -4.44311 | 12807 ft | 374 kts | 243° |
| 2026-04-26 14:41 | 37.06273 | -4.47202 | 12366 ft | 367 kts | 243° |
| 2026-04-26 14:41 | 37.05158 | -4.50012 | 12146 ft | 354 kts | 243° |
| 2026-04-26 14:42 | 37.04068 | -4.52755 | 11598 ft | 352 kts | 243° |
| 2026-04-26 14:42 | 37.02976 | -4.55498 | 10982 ft | 353 kts | 242° |
| 2026-04-26 14:42 | 37.01880 | -4.58258 | 10375 ft | 354 kts | 242° |
| 2026-04-26 14:42 | 37.00781 | -4.61011 | 9794 ft | 354 kts | 242° |
| 2026-04-26 14:43 | 36.99683 | -4.63765 | 9138 ft | 354 kts | 242° |
| 2026-04-26 14:43 | 36.98582 | -4.66522 | 8470 ft | 354 kts | 242° |
| 2026-04-26 14:43 | 36.97480 | -4.69276 | 7819 ft | 354 kts | 242° |
| 2026-04-26 14:43 | 36.96391 | -4.72002 | 7204 ft | 356 kts | 242° |
| 2026-04-26 14:44 | 36.95284 | -4.74763 | 6716 ft | 351 kts | 240° |
| 2026-04-26 14:44 | 36.93814 | -4.77049 | 6499 ft | 326 kts | 215° |
| 2026-04-26 14:44 | 36.91855 | -4.78206 | 6205 ft | 303 kts | 188° |
| 2026-04-26 14:44 | 36.89852 | -4.78189 | 6016 ft | 277 kts | 163° |
| 2026-04-26 14:45 | 36.88087 | -4.77542 | 5960 ft | 251 kts | 160° |
| 2026-04-26 14:45 | 36.87015 | -4.77110 | 5810 ft | 238 kts | 155° |
| 2026-04-26 14:45 | 36.85090 | -4.75945 | 5410 ft | 224 kts | 149° |
| 2026-04-26 14:45 | 36.83717 | -4.75050 | 5081 ft | 222 kts | 148° |
| 2026-04-26 14:46 | 36.82364 | -4.74175 | 4748 ft | 221 kts | 148° |
| 2026-04-26 14:46 | 36.81017 | -4.73257 | 4367 ft | 221 kts | 148° |
| 2026-04-26 14:46 | 36.79669 | -4.72340 | 4020 ft | 220 kts | 149° |
| 2026-04-26 14:46 | 36.78329 | -4.71424 | 3715 ft | 219 kts | 148° |
| 2026-04-26 14:47 | 36.77215 | -4.70157 | 3338 ft | 220 kts | 123° |
| 2026-04-26 14:47 | 36.76512 | -4.68514 | 3087 ft | 208 kts | 116° |
| 2026-04-26 14:47 | 36.75881 | -4.66954 | 2884 ft | 194 kts | 117° |
| 2026-04-26 14:47 | 36.75280 | -4.65518 | 2652 ft | 179 kts | 116° |
| 2026-04-26 14:48 | 36.74753 | -4.64235 | 2543 ft | 155 kts | 118° |
| 2026-04-26 14:48 | 36.74255 | -4.63060 | 2298 ft | 150 kts | 118° |
| 2026-04-26 14:48 | 36.73779 | -4.61927 | 2088 ft | 145 kts | 118° |
| 2026-04-26 14:48 | 36.73311 | -4.60810 | 1918 ft | 145 kts | 118° |
| 2026-04-26 14:49 | 36.72852 | -4.59725 | 1689 ft | 142 kts | 118° |
| 2026-04-26 14:49 | 36.72393 | -4.58636 | 1478 ft | 142 kts | 118° |
| 2026-04-26 14:49 | 36.71943 | -4.57543 | 1320 ft | 139 kts | 119° |
| 2026-04-26 14:49 | 36.71484 | -4.56480 | 1134 ft | 140 kts | 118° |
| 2026-04-26 14:50 | 36.71039 | -4.55381 | 911 ft | 143 kts | 118° |
| 2026-04-26 14:50 | 36.70582 | -4.54282 | 659 ft | 141 kts | 117° |
| 2026-04-26 14:50 | 36.70118 | -4.53205 | 469 ft | 141 kts | 118° |
| 2026-04-26 14:50 | 36.69666 | -4.52125 | 316 ft | 139 kts | 117° |
| 2026-04-26 14:51 | 36.69238 | -4.51089 | 137 ft | 133 kts | 117° |
| 2026-04-26 14:51 | 36.68812 | -4.50084 | 56 ft | 122 kts | 118° |
| 2026-04-26 14:51 | 36.68514 | -4.49370 | 49 ft | 53 kts | 117° |
| 2026-04-26 14:51 | 36.68385 | -4.49073 | 47 ft | 33 kts | 124° |
| 2026-04-26 14:52 | 36.68262 | -4.48922 | 45 ft | 21 kts | 145° |
| 2026-04-26 14:52 | 36.68176 | -4.48854 | 42 ft | 12 kts | 159° |
| 2026-04-26 14:52 | 36.68134 | -4.48893 | 42 ft | 9 kts | 271° |
| 2026-04-26 14:52 | 36.68158 | -4.48972 | 42 ft | 11 kts | 296° |
| 2026-04-26 14:53 | 36.68196 | -4.49068 | 42 ft | 14 kts | 296° |
| 2026-04-26 14:53 | 36.68241 | -4.49170 | 43 ft | 13 kts | 299° |
| 2026-04-26 14:53 | 36.68281 | -4.49266 | 43 ft | 10 kts | 282° |
| 2026-04-26 14:53 | 36.68249 | -4.49348 | 42 ft | 12 kts | 223° |
| 2026-04-26 14:54 | 36.68206 | -4.49399 | 44 ft | 8 kts | 224° |
| 2026-04-26 14:54 | 36.68164 | -4.49447 | 44 ft | 9 kts | 222° |
| 2026-04-26 14:54 | 36.68113 | -4.49504 | 44 ft | 10 kts | 221° |
| 2026-04-26 14:54 | 36.68056 | -4.49567 | 44 ft | 12 kts | 221° |
| 2026-04-26 14:55 | 36.67999 | -4.49630 | 44 ft | 7 kts | 221° |
| 2026-04-26 14:55 | 36.67955 | -4.49679 | 44 ft | 9 kts | 221° |
| 2026-04-26 14:55 | 36.67900 | -4.49740 | 44 ft | 12 kts | 221° |
| 2026-04-26 14:55 | 36.67840 | -4.49807 | 44 ft | 8 kts | 221° |
| 2026-04-26 14:56 | 36.67788 | -4.49855 | 45 ft | 11 kts | 201° |
| 2026-04-26 14:56 | 36.67729 | -4.49809 | 45 ft | 12 kts | 128° |
| 2026-04-26 14:56 | 36.67672 | -4.49728 | 45 ft | 13 kts | 131° |
| 2026-04-26 14:56 | 36.67608 | -4.49637 | 44 ft | 14 kts | 131° |
| 2026-04-26 14:57 | 36.67577 | -4.49569 | 44 ft | 8 kts | 71° |
| 2026-04-26 14:57 | 36.67617 | -4.49520 | 44 ft | 8 kts | 42° |
| 2026-04-26 14:57 | 36.67647 | -4.49487 | 44 ft | 3 kts | 41° |
| 2026-04-26 14:57 | 36.67661 | -4.49470 | 44 ft | 2 kts | 42° |
| 2026-04-26 14:58 | 36.67662 | -4.49469 | 44 ft | 0 kts | 43° |